Time;durP1;ratioP1;P1;durP2;ratioP2;P2;SDS_P1;SDS_P2;PMS_P1;PMS_P2;Temp;Humidity;BMP_temperature;BMP_pressure;BME280_temperature;BME280_humidity;BME280_pressure;Samples;Min_cycle;Max_cycle;Signal;HPM_P1;HPM_P2
2022/04/22 00:00:41;;;;;;;12.30;9.70;;;9.90;91.80;;;;;;5080576;28;20439;-75
2022/04/22 00:03:28;;;;;;;17.60;10.23;;;10.00;91.50;;;;;;5072955;28;20427;-77
2022/04/22 00:06:13;;;;;;;15.20;10.50;;;10.00;91.50;;;;;;5068218;28;20454;-75
2022/04/22 00:08:59;;;;;;;14.10;9.40;;;10.00;91.50;;;;;;5072150;28;20426;-75
2022/04/22 00:11:44;;;;;;;15.73;10.83;;;10.00;91.30;;;;;;5067844;28;20537;-75
2022/04/22 00:14:30;;;;;;;13.87;11.27;;;9.90;91.80;;;;;;5069719;28;20437;-75
2022/04/22 00:17:16;;;;;;;18.50;11.57;;;9.80;92.10;;;;;;5069375;28;20490;-74
2022/04/22 00:20:04;;;;;;;15.70;11.13;;;9.70;92.60;;;;;;5075186;28;20510;-75
2022/04/22 00:22:49;;;;;;;14.97;11.60;;;9.70;92.80;;;;;;5071859;28;20547;-74
2022/04/22 00:25:35;;;;;;;15.17;11.10;;;9.60;93.30;;;;;;5070728;28;20473;-75
2022/04/22 00:28:21;;;;;;;18.80;12.20;;;9.60;93.60;;;;;;5075439;28;20435;-75
2022/04/22 00:31:07;;;;;;;17.07;10.97;;;9.60;93.80;;;;;;5078355;28;20439;-77
2022/04/22 00:33:52;;;;;;;15.60;11.20;;;9.50;93.90;;;;;;5072247;28;20485;-75
2022/04/22 00:36:39;;;;;;;18.27;13.40;;;9.50;94.90;;;;;;5071159;28;20466;-75
2022/04/22 00:39:25;;;;;;;20.93;13.10;;;9.60;94.70;;;;;;5065544;28;20548;-75
2022/04/22 00:42:12;;;;;;;20.10;13.90;;;9.80;95.10;;;;;;5071610;28;20859;-75
2022/04/22 00:44:58;;;;;;;18.53;13.40;;;10.00;94.60;;;;;;5070637;28;20428;-77
2022/04/22 00:47:44;;;;;;;19.00;13.30;;;10.20;94.20;;;;;;5063891;28;20423;-77
2022/04/22 00:50:30;;;;;;;16.70;13.00;;;10.20;93.80;;;;;;5073381;28;20457;-76
2022/04/22 00:53:17;;;;;;;20.20;14.67;;;10.20;93.80;;;;;;5074135;28;20443;-76
2022/04/22 00:56:05;;;;;;;19.63;14.90;;;10.20;93.80;;;;;;5068885;28;20453;-75
2022/04/22 00:58:52;;;;;;;18.20;13.70;;;10.30;93.80;;;;;;5072963;28;20426;-75
2022/04/22 01:01:38;;;;;;;25.10;15.20;;;10.40;93.70;;;;;;5071248;28;20551;-75
2022/04/22 01:10:32;;;;;;;22.33;15.30;;;10.60;93.30;;;;;;5074384;28;20942;-76
2022/04/22 01:13:18;;;;;;;28.00;16.43;;;10.50;93.60;;;;;;5075133;28;20443;-75
2022/04/22 01:16:04;;;;;;;24.03;16.90;;;10.50;93.80;;;;;;5071676;28;20437;-75
2022/04/22 01:18:50;;;;;;;23.20;17.10;;;10.50;93.70;;;;;;5074654;28;20779;-75
2022/04/22 01:21:37;;;;;;;23.40;16.60;;;10.50;93.80;;;;;;5066511;28;20555;-76
2022/04/22 01:24:23;;;;;;;24.20;16.50;;;10.40;94.00;;;;;;5070518;28;20581;-78
2022/04/22 01:27:11;;;;;;;23.80;16.77;;;10.40;94.20;;;;;;5077010;28;20446;-75
2022/04/22 01:29:57;;;;;;;28.10;17.37;;;10.30;94.30;;;;;;5079502;28;20450;-75
2022/04/22 01:32:45;;;;;;;24.13;17.13;;;10.30;94.50;;;;;;5075978;28;20476;-79
2022/04/22 01:35:30;;;;;;;24.27;16.53;;;10.20;95.00;;;;;;5071073;28;20477;-74
2022/04/22 01:38:17;;;;;;;26.07;18.30;;;10.20;94.80;;;;;;5076433;28;20416;-76
2022/04/22 01:41:03;;;;;;;24.63;17.50;;;10.20;94.90;;;;;;5072094;28;20429;-74
2022/04/22 01:43:49;;;;;;;29.87;17.27;;;10.20;95.00;;;;;;5071210;28;20448;-77
2022/04/22 01:46:35;;;;;;;23.63;17.70;;;10.20;95.20;;;;;;5075866;28;20434;-75
2022/04/22 01:49:21;;;;;;;25.67;18.30;;;10.20;95.10;;;;;;5071796;28;20446;-75
2022/04/22 01:52:08;;;;;;;26.43;19.03;;;10.20;95.00;;;;;;5072071;28;20943;-75
2022/04/22 01:54:56;;;;;;;26.23;19.10;;;10.20;95.00;;;;;;5070494;28;20490;-76
2022/04/22 01:57:41;;;;;;;26.10;17.93;;;10.20;95.00;;;;;;5069905;28;20449;-75
2022/04/22 02:00:27;;;;;;;28.00;19.33;;;10.30;94.90;;;;;;5082033;28;20408;-75
2022/04/22 02:03:13;;;;;;;27.37;18.07;;;10.20;94.90;;;;;;5075827;28;20530;-75
2022/04/22 02:05:59;;;;;;;24.27;18.37;;;10.30;94.70;;;;;;5067952;28;20429;-75
2022/04/22 02:08:44;;;;;;;26.23;17.90;;;10.30;94.70;;;;;;5075875;28;20440;-75
2022/04/22 02:11:32;;;;;;;26.80;18.53;;;10.30;94.60;;;;;;5073104;28;20446;-76
2022/04/22 02:14:17;;;;;;;25.30;18.13;;;10.30;94.50;;;;;;5071491;28;20555;-75
2022/04/22 02:17:03;;;;;;;27.43;18.97;;;10.30;94.50;;;;;;5077608;28;20450;-74
2022/04/22 02:19:49;;;;;;;25.80;18.30;;;10.40;94.40;;;;;;5073275;28;20431;-75
2022/04/22 02:22:35;;;;;;;23.77;17.10;;;10.30;94.30;;;;;;5069849;28;20545;-75
2022/04/22 02:25:21;;;;;;;24.60;17.97;;;10.30;94.20;;;;;;5072974;28;20497;-75
2022/04/22 02:31:12;;;;;;;29.90;19.33;;;10.30;94.30;;;;;;5077777;28;20516;-75
2022/04/22 02:33:58;;;;;;;29.13;19.00;;;10.30;94.30;;;;;;5066084;28;21044;-75
2022/04/22 02:36:44;;;;;;;25.93;18.30;;;10.40;94.20;;;;;;5071182;28;20448;-75
2022/04/22 02:39:29;;;;;;;25.80;18.73;;;10.40;94.20;;;;;;5070581;28;20476;-76
2022/04/22 02:45:29;;;;;;;29.27;19.70;;;10.50;93.80;;;;;;5071103;28;20485;-74
2022/04/22 02:48:14;;;;;;;25.47;18.10;;;10.30;93.90;;;;;;5075387;28;20643;-75
2022/04/22 02:51:00;;;;;;;26.60;19.20;;;10.20;94.20;;;;;;5076550;28;20528;-75
2022/04/22 02:53:46;;;;;;;30.47;19.00;;;10.10;94.30;;;;;;5067672;28;20439;-76
2022/04/22 02:56:32;;;;;;;22.83;16.30;;;10.00;94.30;;;;;;5073667;28;20993;-75
2022/04/22 02:59:18;;;;;;;23.50;17.50;;;10.00;94.60;;;;;;5072638;28;20425;-76
2022/04/22 03:02:07;;;;;;;29.93;18.60;;;9.90;94.70;;;;;;5069675;28;20997;-76
2022/04/22 03:04:53;;;;;;;26.57;18.20;;;9.90;95.00;;;;;;5067642;28;20510;-75
2022/04/22 03:07:39;;;;;;;27.43;19.53;;;9.80;95.00;;;;;;5078378;28;20415;-75
2022/04/22 03:10:25;;;;;;;29.10;19.37;;;9.70;95.10;;;;;;5071253;28;20814;-76
2022/04/22 03:13:10;;;;;;;27.43;18.57;;;9.70;96.00;;;;;;5075936;28;20477;-75
2022/04/22 03:15:57;;;;;;;27.83;19.13;;;9.70;96.30;;;;;;5075419;28;20569;-76
2022/04/22 03:18:44;;;;;;;29.03;20.30;;;9.70;96.50;;;;;;5074518;28;20539;-75
2022/04/22 03:21:30;;;;;;;34.83;21.70;;;9.80;96.40;;;;;;5066808;28;20472;-75
2022/04/22 03:24:16;;;;;;;29.70;18.93;;;9.80;96.50;;;;;;5065896;28;20473;-75
2022/04/22 03:27:02;;;;;;;28.43;18.00;;;9.80;96.90;;;;;;5074835;28;20461;-75
2022/04/22 03:29:48;;;;;;;32.67;20.67;;;9.80;96.70;;;;;;5076827;28;20483;-75
2022/04/22 03:32:34;;;;;;;26.93;19.27;;;9.80;96.50;;;;;;5069828;28;20516;-75
2022/04/22 03:35:21;;;;;;;28.87;20.20;;;9.80;96.80;;;;;;5072162;28;20481;-74
2022/04/22 03:38:08;;;;;;;30.87;20.90;;;9.70;96.90;;;;;;5076266;28;20602;-74
2022/04/22 03:40:54;;;;;;;32.63;21.00;;;9.80;96.80;;;;;;5078967;28;20461;-75
2022/04/22 03:43:41;;;;;;;32.87;19.60;;;9.90;96.60;;;;;;5075473;28;20505;-75
2022/04/22 03:46:26;;;;;;;27.40;18.40;;;9.90;96.60;;;;;;5072140;28;20419;-75
2022/04/22 03:49:11;;;;;;;29.40;20.60;;;9.90;96.20;;;;;;5079532;28;20462;-76
2022/04/22 03:51:59;;;;;;;30.27;20.07;;;9.80;96.40;;;;;;5073714;28;20436;-76
2022/04/22 03:54:44;;;;;;;27.43;20.77;;;9.90;96.70;;;;;;5074388;28;20489;-75
2022/04/22 04:00:33;;;;;;;30.63;20.40;;;9.90;96.60;;;;;;5078869;28;20953;-75
2022/04/22 04:03:20;;;;;;;27.83;20.27;;;9.90;96.60;;;;;;5071929;28;20454;-75
2022/04/22 04:06:07;;;;;;;30.30;19.43;;;9.90;96.60;;;;;;5071785;28;20447;-75
2022/04/22 04:18:00;;;;;;;30.30;20.43;;;9.90;96.60;;;;;;5067577;28;20835;-74
2022/04/22 04:23:49;;;;;;;28.67;20.77;;;9.90;96.60;;;;;;5071390;28;20462;-75
2022/04/22 04:26:37;;;;;;;29.47;19.80;;;9.80;96.40;;;;;;5075609;28;20497;-75
2022/04/22 04:29:22;;;;;;;27.07;18.57;;;9.90;96.50;;;;;;5075045;28;20777;-75
2022/04/22 04:32:09;;;;;;;29.60;19.10;;;9.90;96.20;;;;;;5067771;28;20461;-77
2022/04/22 04:34:54;;;;;;;31.17;20.47;;;9.90;96.30;;;;;;5075989;28;20485;-75
2022/04/22 04:37:41;;;;;;;31.10;20.20;;;9.90;96.20;;;;;;5086796;28;20445;-75
2022/04/22 04:40:26;;;;;;;30.70;20.33;;;9.80;96.30;;;;;;5076657;28;20499;-75
2022/04/22 04:43:13;;;;;;;27.63;19.77;;;9.80;96.40;;;;;;5065997;28;20433;-76
2022/04/22 04:45:59;;;;;;;27.70;20.07;;;9.70;96.60;;;;;;5072530;28;20425;-76
2022/04/22 04:48:45;;;;;;;25.53;18.47;;;9.70;96.50;;;;;;5080933;28;20419;-75
2022/04/22 04:51:31;;;;;;;28.93;19.37;;;9.70;96.80;;;;;;5071406;28;20462;-77
2022/04/22 04:54:17;;;;;;;28.33;19.60;;;9.70;96.90;;;;;;5085803;28;20540;-74
2022/04/22 04:57:03;;;;;;;28.63;19.87;;;9.80;96.80;;;;;;5081548;28;20484;-75
2022/04/22 04:59:50;;;;;;;27.40;20.17;;;9.80;96.50;;;;;;5076987;28;20445;-78
2022/04/22 05:02:36;;;;;;;25.10;17.77;;;9.90;96.50;;;;;;5076668;28;20465;-76
2022/04/22 05:05:22;;;;;;;27.20;19.30;;;10.00;95.80;;;;;;5079563;28;21055;-76
2022/04/22 05:08:09;;;;;;;24.83;17.00;;;10.00;95.40;;;;;;5074900;28;20413;-73
2022/04/22 05:10:55;;;;;;;28.47;18.70;;;10.10;95.30;;;;;;5072846;28;21040;-75
2022/04/22 05:13:41;;;;;;;26.50;17.67;;;10.20;95.30;;;;;;5075369;28;20471;-75
2022/04/22 05:16:28;;;;;;;28.47;19.87;;;10.30;95.00;;;;;;5065637;28;20418;-74
2022/04/22 05:19:14;;;;;;;30.67;19.20;;;10.30;94.70;;;;;;5067451;28;20427;-74
2022/04/22 05:22:00;;;;;;;24.63;17.60;;;10.30;94.40;;;;;;5070681;28;20495;-76
2022/04/22 05:24:45;;;;;;;29.47;18.77;;;10.40;94.60;;;;;;5074410;28;20434;-76
2022/04/22 05:27:32;;;;;;;27.17;17.70;;;10.40;94.40;;;;;;5069279;28;20433;-75
2022/04/22 05:33:23;;;;;;;27.67;19.03;;;10.40;94.10;;;;;;5072076;28;20446;-75
2022/04/22 05:36:09;;;;;;;27.43;19.03;;;10.30;94.20;;;;;;5069562;28;20420;-75
2022/04/22 05:38:55;;;;;;;24.70;17.70;;;10.30;94.20;;;;;;5078677;28;20435;-77
2022/04/22 05:41:40;;;;;;;25.10;17.10;;;10.20;94.20;;;;;;5074448;28;20454;-76
2022/04/22 05:44:26;;;;;;;26.07;17.83;;;10.20;94.30;;;;;;5080490;28;20833;-75
2022/04/22 05:47:12;;;;;;;25.03;18.03;;;10.20;94.20;;;;;;5072795;28;20816;-74
2022/04/22 05:49:59;;;;;;;26.13;17.90;;;10.20;94.30;;;;;;5066822;28;20471;-75
2022/04/22 05:52:45;;;;;;;26.30;17.07;;;10.20;94.20;;;;;;5072324;28;20480;-76
2022/04/22 05:55:30;;;;;;;21.33;16.67;;;10.10;94.20;;;;;;5069967;28;20792;-75
2022/04/22 05:58:16;;;;;;;27.90;18.50;;;10.20;94.50;;;;;;5074635;28;20796;-76
2022/04/22 06:01:01;;;;;;;23.50;16.70;;;10.20;94.20;;;;;;5071016;28;20497;-76
2022/04/22 06:03:47;;;;;;;29.20;18.80;;;10.30;93.90;;;;;;5072200;28;20820;-75
2022/04/22 06:06:34;;;;;;;22.80;16.40;;;10.30;93.80;;;;;;5075389;28;20471;-75
2022/04/22 06:12:23;;;;;;;23.33;16.80;;;10.50;93.60;;;;;;5067462;28;20440;-74
2022/04/22 06:15:09;;;;;;;23.03;16.23;;;10.60;93.40;;;;;;5067502;28;20441;-75
2022/04/22 06:17:55;;;;;;;20.27;14.53;;;10.60;93.20;;;;;;5066812;28;20433;-75
2022/04/22 06:20:41;;;;;;;22.20;15.60;;;10.70;92.70;;;;;;5067202;28;20862;-75
2022/04/22 06:23:28;;;;;;;26.23;16.10;;;10.80;92.60;;;;;;5070312;28;20457;-75
2022/04/22 06:26:14;;;;;;;23.73;16.03;;;10.90;92.50;;;;;;5066311;28;20481;-76
2022/04/22 06:28:59;;;;;;;24.93;15.23;;;11.10;92.10;;;;;;5066839;28;20596;-76
2022/04/22 06:31:45;;;;;;;23.83;16.23;;;11.20;91.70;;;;;;5069175;28;20820;-76
2022/04/22 06:34:31;;;;;;;20.40;14.60;;;11.30;91.40;;;;;;5071871;28;20967;-75
2022/04/22 06:37:18;;;;;;;25.83;15.10;;;11.40;91.70;;;;;;5077195;28;20958;-76
2022/04/22 06:46:16;;;;;;;20.20;14.30;;;11.60;90.90;;;;;;5071190;28;20439;-75
2022/04/22 06:49:02;;;;;;;19.00;13.73;;;11.70;90.80;;;;;;5074653;28;20443;-75
2022/04/22 06:51:48;;;;;;;20.47;13.50;;;11.80;89.90;;;;;;5073721;28;20955;-75
2022/04/22 06:54:36;;;;;;;19.80;14.30;;;11.70;88.70;;;;;;5076334;28;20473;-76
2022/04/22 06:57:24;;;;;;;19.70;13.77;;;11.70;88.90;;;;;;5078073;28;20450;-76
2022/04/22 07:00:11;;;;;;;22.90;14.67;;;11.80;89.60;;;;;;5068291;28;20451;-75
2022/04/22 07:02:57;;;;;;;18.83;13.60;;;11.80;88.90;;;;;;5079747;28;20476;-75
2022/04/22 07:05:45;;;;;;;17.80;13.07;;;11.80;89.50;;;;;;5064359;28;20485;-75
2022/04/22 07:08:31;;;;;;;19.47;13.90;;;11.80;88.00;;;;;;5073711;28;20454;-75
2022/04/22 07:11:24;;;;;;;17.03;12.27;;;11.80;87.40;;;;;;5070874;28;20443;-75
2022/04/22 07:14:13;;;;;;;17.40;13.80;;;11.90;87.20;;;;;;5077374;28;20512;-78
2022/04/22 07:16:59;;;;;;;21.23;13.07;;;12.00;88.20;;;;;;5076067;28;20438;-75
2022/04/22 07:19:45;;;;;;;18.63;13.17;;;12.10;86.60;;;;;;5074390;28;20492;-75
2022/04/22 07:22:31;;;;;;;20.20;12.70;;;12.20;85.30;;;;;;5074859;28;20549;-76
2022/04/22 07:25:20;;;;;;;16.70;12.57;;;12.10;83.90;;;;;;5079711;28;20591;-73
2022/04/22 07:28:06;;;;;;;16.50;12.43;;;12.20;83.30;;;;;;5077176;28;21465;-74
2022/04/22 07:30:53;;;;;;;19.10;12.03;;;12.30;83.20;;;;;;5074267;28;20528;-73
2022/04/22 07:33:39;;;;;;;16.17;12.27;;;12.40;82.60;;;;;;5075021;28;20889;-74
2022/04/22 07:36:25;;;;;;;16.47;12.50;;;12.40;82.40;;;;;;5073545;28;20428;-74
2022/04/22 07:39:12;;;;;;;16.20;11.10;;;12.50;80.80;;;;;;5074867;28;20438;-73
2022/04/22 07:41:58;;;;;;;16.17;11.27;;;12.60;79.70;;;;;;5076698;28;21074;-73
2022/04/22 07:47:52;;;;;;;15.73;10.87;;;12.80;79.60;;;;;;5070749;28;21007;-73
2022/04/22 07:50:38;;;;;;;13.50;11.30;;;13.00;79.70;;;;;;5074252;28;20470;-74
2022/04/22 07:53:24;;;;;;;16.27;11.30;;;13.10;78.30;;;;;;5077491;28;20434;-73
2022/04/22 07:56:09;;;;;;;13.97;11.17;;;13.20;77.90;;;;;;5076150;28;20466;-73
2022/04/22 07:58:56;;;;;;;16.13;11.93;;;13.20;77.40;;;;;;5072848;28;20636;-73
2022/04/22 08:01:42;;;;;;;14.33;11.60;;;13.40;77.00;;;;;;5074858;28;20450;-73
2022/04/22 08:04:29;;;;;;;12.90;9.73;;;13.40;73.90;;;;;;5079384;28;20470;-74
2022/04/22 08:07:16;;;;;;;13.77;11.40;;;13.50;73.80;;;;;;5079417;28;20415;-74
2022/04/22 08:10:02;;;;;;;14.50;10.47;;;13.50;75.30;;;;;;5073324;28;20462;-74
2022/04/22 08:12:47;;;;;;;12.77;9.33;;;13.60;74.10;;;;;;5076686;28;20963;-74
2022/04/22 08:15:34;;;;;;;12.73;10.20;;;13.70;74.90;;;;;;5072110;28;20425;-74
2022/04/22 08:18:19;;;;;;;14.07;10.27;;;13.80;74.20;;;;;;5076092;28;20442;-73
2022/04/22 08:21:08;;;;;;;11.03;9.70;;;13.90;73.40;;;;;;5077093;28;20593;-74
2022/04/22 08:23:54;;;;;;;14.00;10.23;;;14.10;73.60;;;;;;5077155;28;20483;-74
2022/04/22 08:26:40;;;;;;;12.90;10.00;;;14.20;71.70;;;;;;5078004;28;20433;-74
2022/04/22 08:29:25;;;;;;;14.20;10.20;;;14.30;70.00;;;;;;5067632;28;20539;-73
2022/04/22 08:32:11;;;;;;;15.93;10.67;;;14.30;70.10;;;;;;5079375;28;20419;-74
2022/04/22 08:34:57;;;;;;;16.10;12.17;;;14.40;70.50;;;;;;5067066;28;20449;-74
2022/04/22 08:37:45;;;;;;;14.67;11.60;;;14.50;68.50;;;;;;5075294;28;20440;-73
2022/04/22 08:40:32;;;;;;;14.17;10.00;;;14.40;67.70;;;;;;5082299;28;20427;-74
2022/04/22 08:43:20;;;;;;;12.00;10.07;;;14.50;68.80;;;;;;5074501;28;20457;-75
2022/04/22 08:49:58;;;;;;;11.70;10.20;;;14.60;66.10;;;;;;5077334;28;21078;-76
2022/04/22 08:52:20;;;;;;;16.80;10.13;;;14.80;67.00;;;;;;5080399;28;20482;-76
2022/04/22 08:55:08;;;;;;;12.50;9.70;;;14.90;66.10;;;;;;5072411;28;20621;-76
2022/04/22 08:57:55;;;;;;;12.83;9.90;;;15.10;63.40;;;;;;5070660;28;20454;-75
2022/04/22 09:00:43;;;;;;;14.93;11.10;;;15.10;64.70;;;;;;5071622;28;20478;-76
2022/04/22 09:03:29;;;;;;;11.97;9.37;;;15.10;62.20;;;;;;5078889;28;20669;-74
2022/04/22 09:06:15;;;;;;;13.20;9.97;;;15.10;63.30;;;;;;5079351;28;20446;-74
2022/04/22 09:09:01;;;;;;;12.00;9.87;;;15.20;63.00;;;;;;5075858;28;20443;-74
2022/04/22 09:11:48;;;;;;;11.90;9.83;;;15.20;61.90;;;;;;5075303;28;20446;-74
2022/04/22 09:14:34;;;;;;;12.73;9.97;;;15.20;63.30;;;;;;5075210;28;20833;-74
2022/04/22 09:17:23;;;;;;;14.27;10.97;;;15.30;61.20;;;;;;5074491;28;20473;-74
2022/04/22 09:20:15;;;;;;;13.77;9.43;;;15.30;61.50;;;;;;5081208;28;20450;-75
2022/04/22 09:23:00;;;;;;;13.53;9.57;;;15.40;62.70;;;;;;5076113;28;20444;-75
2022/04/22 09:25:46;;;;;;;14.07;9.67;;;15.50;62.60;;;;;;5071137;28;20877;-74
2022/04/22 09:28:34;;;;;;;13.03;9.87;;;15.60;60.80;;;;;;5072359;28;20441;-73
2022/04/22 09:31:20;;;;;;;12.10;10.57;;;15.60;59.80;;;;;;5074948;28;20506;-73
2022/04/22 09:34:05;;;;;;;10.07;8.57;;;15.70;60.30;;;;;;5067195;28;20439;-73
2022/04/22 09:43:12;;;;;;;10.83;9.03;;;16.00;61.70;;;;;;5080839;28;20454;-76
2022/04/22 09:46:00;;;;;;;10.87;8.20;;;16.10;58.50;;;;;;5079685;28;20511;-76
2022/04/22 09:48:46;;;;;;;11.97;9.07;;;16.20;57.20;;;;;;5074413;28;21006;-76
2022/04/22 09:51:32;;;;;;;10.17;8.90;;;16.30;58.90;;;;;;5080953;28;20812;-75
2022/04/22 09:54:19;;;;;;;13.77;9.60;;;16.30;59.60;;;;;;5077895;28;20474;-76
2022/04/22 09:57:05;;;;;;;10.73;7.93;;;16.40;58.60;;;;;;5072229;28;20450;-76
2022/04/22 09:59:52;;;;;;;11.53;9.20;;;16.50;57.80;;;;;;5078330;28;20442;-76
2022/04/22 10:02:39;;;;;;;12.10;10.17;;;16.60;58.20;;;;;;5076475;28;20458;-76
2022/04/22 10:05:26;;;;;;;12.60;10.33;;;16.70;53.90;;;;;;5080014;28;20474;-75
2022/04/22 10:08:13;;;;;;;11.73;9.17;;;16.70;53.40;;;;;;5069500;28;20994;-76
2022/04/22 10:11:00;;;;;;;11.53;9.00;;;16.70;55.40;;;;;;5067477;28;20457;-76
2022/04/22 10:13:47;;;;;;;14.33;8.83;;;16.70;55.00;;;;;;5071004;28;20466;-76
2022/04/22 10:16:33;;;;;;;9.00;7.70;;;16.80;55.70;;;;;;5069765;28;20451;-76
2022/04/22 10:19:21;;;;;;;9.90;8.90;;;16.90;54.10;;;;;;5068619;28;20434;-76
2022/04/22 10:22:10;;;;;;;14.63;8.37;;;17.00;54.80;;;;;;5074176;28;20402;-76
2022/04/22 10:24:56;;;;;;;11.00;8.80;;;17.20;55.00;;;;;;5070842;28;20478;-77
2022/04/22 10:27:44;;;;;;;12.13;7.87;;;17.30;53.20;;;;;;5071781;28;20760;-76
2022/04/22 10:30:31;;;;;;;11.93;8.47;;;17.40;52.40;;;;;;5077364;28;20442;-76
2022/04/22 10:33:17;;;;;;;9.07;8.10;;;17.60;52.70;;;;;;5080210;28;20478;-74
2022/04/22 10:36:06;;;;;;;11.80;8.40;;;17.80;52.70;;;;;;5075324;28;20434;-75
2022/04/22 10:38:52;;;;;;;12.90;8.20;;;17.90;49.10;;;;;;5078753;28;20522;-76
2022/04/22 10:41:47;;;;;;;12.27;8.80;;;17.90;46.00;;;;;;5075980;28;20449;-76
2022/04/22 10:47:44;;;;;;;10.57;8.13;;;18.10;47.70;;;;;;5072490;28;20426;-76
2022/04/22 10:50:32;;;;;;;11.20;8.83;;;18.10;49.40;;;;;;5075054;28;20451;-76
2022/04/22 10:53:25;;;;;;;11.67;8.47;;;18.20;46.70;;;;;;5079433;28;20442;-75
2022/04/22 10:56:35;;;;;;;8.33;7.47;;;18.30;47.50;;;;;;5073736;28;21145;-75
2022/04/22 10:59:32;;;;;;;10.17;8.43;;;18.40;48.90;;;;;;5067108;28;20446;-76
2022/04/22 11:02:29;;;;;;;10.77;8.70;;;18.60;46.70;;;;;;5079025;28;20458;-75
2022/04/22 11:05:38;;;;;;;12.87;9.00;;;18.50;43.80;;;;;;5079033;28;20521;-75
2022/04/22 11:08:30;;;;;;;10.17;8.53;;;18.50;44.60;;;;;;5075414;28;20442;-76
2022/04/22 11:11:19;;;;;;;10.83;7.00;;;18.60;44.80;;;;;;5075180;28;20808;-76
2022/04/22 11:14:18;;;;;;;9.27;6.97;;;18.70;47.00;;;;;;5075866;28;20589;-76
2022/04/22 11:17:32;;;;;;;11.10;8.10;;;18.80;45.30;;;;;;5071046;28;20473;-76
2022/04/22 11:20:18;;;;;;;8.73;7.87;;;18.70;44.40;;;;;;5070660;28;21298;-75
2022/04/22 11:23:05;;;;;;;11.67;9.00;;;18.70;45.00;;;;;;5077002;28;20439;-76
2022/04/22 11:25:52;;;;;;;11.47;8.17;;;18.80;44.10;;;;;;5066373;28;20486;-76
2022/04/22 11:28:39;;;;;;;9.53;8.20;;;18.90;44.80;;;;;;5075002;28;20443;-76
2022/04/22 11:31:30;;;;;;;12.83;8.10;;;18.90;44.10;;;;;;5082769;28;20915;-75
2022/04/22 11:34:18;;;;;;;12.03;8.33;;;19.00;42.90;;;;;;5082382;28;20474;-76
2022/04/22 11:37:18;;;;;;;12.77;9.37;;;19.00;42.10;;;;;;5082511;28;21078;-75
2022/04/22 11:40:08;;;;;;;9.40;7.97;;;19.10;43.10;;;;;;5077977;28;20450;-75
2022/04/22 11:42:56;;;;;;;10.43;9.33;;;19.20;46.00;;;;;;5075596;28;20533;-75
2022/04/22 11:45:43;;;;;;;9.17;6.90;;;19.40;42.50;;;;;;5071615;28;20834;-74
2022/04/22 11:48:29;;;;;;;12.77;8.03;;;19.40;42.60;;;;;;5075657;28;20458;-74
2022/04/22 11:51:16;;;;;;;10.13;6.87;;;19.60;42.20;;;;;;5070152;28;20511;-74
2022/04/22 11:54:02;;;;;;;8.77;7.53;;;19.80;43.10;;;;;;5072568;28;20482;-75
2022/04/22 11:56:48;;;;;;;9.27;8.03;;;20.00;40.10;;;;;;5074859;28;20557;-76
2022/04/22 11:59:41;;;;;;;7.70;6.80;;;20.10;39.70;;;;;;5072134;28;20493;-76
2022/04/22 12:05:36;;;;;;;8.50;7.03;;;20.10;40.10;;;;;;5078682;28;20898;-76
2022/04/22 12:08:22;;;;;;;13.77;8.67;;;20.30;39.90;;;;;;5076923;28;20516;-76
2022/04/22 12:11:07;;;;;;;7.83;7.03;;;20.40;39.00;;;;;;5076359;28;20434;-76
2022/04/22 12:13:54;;;;;;;8.00;7.20;;;20.50;36.70;;;;;;5080775;28;20450;-76
2022/04/22 12:16:43;;;;;;;18.40;7.00;;;20.70;38.60;;;;;;5073423;28;20443;-76
2022/04/22 12:19:29;;;;;;;10.50;7.20;;;20.90;37.60;;;;;;5076280;28;20450;-76
2022/04/22 12:22:15;;;;;;;9.27;6.90;;;21.00;37.70;;;;;;5078290;28;20423;-75
2022/04/22 12:25:11;;;;;;;10.60;7.13;;;21.10;37.80;;;;;;5073350;28;20514;-76
2022/04/22 12:28:08;;;;;;;8.50;6.50;;;21.10;35.50;;;;;;5079465;28;20442;-75
2022/04/22 12:30:54;;;;;;;9.73;7.27;;;21.20;36.00;;;;;;5082981;28;20983;-75
2022/04/22 12:33:41;;;;;;;9.27;7.30;;;21.00;34.80;;;;;;5078393;28;20939;-76
2022/04/22 12:36:28;;;;;;;8.27;6.97;;;21.00;35.40;;;;;;5075271;28;20509;-76
2022/04/22 12:39:33;;;;;;;11.43;6.03;;;21.20;36.30;;;;;;5073727;28;20525;-74
2022/04/22 12:42:29;;;;;;;7.90;5.40;;;21.30;34.50;;;;;;5075161;28;20463;-74
2022/04/22 12:54:33;;;;;;;10.43;6.30;;;21.60;33.60;;;;;;5072961;28;20485;-75
2022/04/22 12:57:22;;;;;;;15.67;6.30;;;21.70;34.00;;;;;;5069152;28;20497;-75
2022/04/22 13:00:16;;;;;;;7.23;5.70;;;21.90;31.60;;;;;;5065397;28;20479;-74
2022/04/22 13:03:04;;;;;;;7.73;5.70;;;21.90;32.60;;;;;;5067299;28;20465;-75
2022/04/22 13:05:49;;;;;;;6.67;5.83;;;21.90;31.80;;;;;;5069368;28;20489;-75
2022/04/22 13:08:36;;;;;;;7.63;6.50;;;22.00;31.40;;;;;;5065555;28;20496;-74
2022/04/22 13:11:22;;;;;;;7.50;5.83;;;22.00;31.10;;;;;;5069382;28;20516;-75
2022/04/22 13:14:09;;;;;;;5.63;4.90;;;21.90;31.10;;;;;;5066921;28;20616;-74
2022/04/22 13:16:56;;;;;;;8.57;4.83;;;22.00;32.40;;;;;;5072591;28;20438;-74
2022/04/22 13:19:41;;;;;;;9.70;5.77;;;22.10;31.40;;;;;;5075315;28;20660;-75
2022/04/22 13:22:27;;;;;;;8.70;5.83;;;22.20;30.00;;;;;;5072149;28;20462;-74
2022/04/22 13:25:17;;;;;;;8.33;5.50;;;22.10;30.40;;;;;;5069120;28;20633;-75
2022/04/22 13:28:04;;;;;;;6.70;5.27;;;21.80;30.00;;;;;;5064997;28;20455;-75
2022/04/22 13:30:49;;;;;;;7.33;6.00;;;21.60;31.10;;;;;;5069624;28;20551;-74
2022/04/22 13:33:35;;;;;;;7.30;5.67;;;21.50;30.40;;;;;;5063501;28;20806;-74
2022/04/22 13:36:20;;;;;;;6.33;5.40;;;21.50;31.70;;;;;;5068531;28;20447;-74
2022/04/22 13:39:06;;;;;;;11.53;7.53;;;21.70;31.30;;;;;;5064627;28;20426;-75
2022/04/22 13:41:53;;;;;;;6.73;5.70;;;21.90;31.50;;;;;;5078153;28;20800;-75
2022/04/22 13:53:50;;;;;;;9.43;5.87;;;22.00;30.00;;;;;;5065706;28;20459;-75
2022/04/22 13:56:36;;;;;;;7.27;5.90;;;22.20;30.40;;;;;;5068803;28;20451;-75
2022/04/22 13:59:23;;;;;;;7.33;5.07;;;22.10;29.90;;;;;;5069167;28;20397;-75
2022/04/22 14:02:09;;;;;;;7.90;5.50;;;22.20;30.90;;;;;;5072662;28;20888;-75
2022/04/22 14:04:54;;;;;;;8.07;5.60;;;22.20;29.20;;;;;;5070615;28;20474;-74
2022/04/22 14:07:40;;;;;;;7.17;5.57;;;22.00;29.70;;;;;;5068090;28;20446;-75
2022/04/22 14:10:26;;;;;;;6.70;5.33;;;22.20;30.60;;;;;;5069479;28;20423;-74
2022/04/22 14:13:13;;;;;;;7.30;5.00;;;22.40;29.60;;;;;;5072167;28;20467;-74
2022/04/22 14:16:00;;;;;;;8.10;5.03;;;22.60;31.20;;;;;;5068553;28;20443;-75
2022/04/22 14:18:46;;;;;;;6.40;4.90;;;22.50;30.70;;;;;;5066927;28;20461;-75
2022/04/22 14:21:32;;;;;;;8.47;4.67;;;22.20;29.90;;;;;;5069259;28;20422;-75
2022/04/22 14:24:18;;;;;;;8.83;4.97;;;21.80;30.00;;;;;;5067979;28;20474;-74
2022/04/22 14:27:06;;;;;;;10.13;5.67;;;21.40;29.60;;;;;;5066390;28;20969;-74
2022/04/22 14:29:52;;;;;;;5.70;4.60;;;21.00;30.30;;;;;;5076137;28;20443;-75
2022/04/22 14:32:39;;;;;;;7.43;5.20;;;21.00;31.60;;;;;;5072591;28;21007;-74
2022/04/22 14:35:25;;;;;;;6.40;4.53;;;21.00;31.60;;;;;;5066496;28;20817;-75
2022/04/22 14:38:11;;;;;;;9.20;5.33;;;20.90;31.80;;;;;;5070647;28;20505;-74
2022/04/22 14:40:57;;;;;;;7.33;4.83;;;21.10;33.70;;;;;;5064242;28;20489;-75
2022/04/22 14:43:43;;;;;;;6.97;4.40;;;21.40;32.20;;;;;;5070298;28;20426;-75
2022/04/22 14:46:28;;;;;;;6.73;4.30;;;21.50;31.10;;;;;;5069608;28;20806;-75
2022/04/22 14:49:16;;;;;;;4.90;4.20;;;21.50;30.20;;;;;;5070677;28;20428;-75
2022/04/22 14:52:01;;;;;;;7.13;4.77;;;21.60;29.30;;;;;;5073412;28;20442;-74
2022/04/22 14:54:47;;;;;;;10.03;4.93;;;21.70;29.80;;;;;;5068557;28;20485;-74
2022/04/22 14:57:32;;;;;;;6.37;3.77;;;21.60;30.20;;;;;;5070541;28;20446;-74
2022/04/22 15:00:19;;;;;;;6.23;4.60;;;21.50;30.20;;;;;;5069677;28;20418;-74
2022/04/22 15:03:04;;;;;;;5.67;5.07;;;21.30;30.50;;;;;;5066547;28;20423;-74
2022/04/22 15:05:52;;;;;;;6.70;4.30;;;21.20;29.90;;;;;;5065572;28;20513;-74
2022/04/22 15:08:38;;;;;;;5.47;4.10;;;21.20;31.70;;;;;;5070804;28;20442;-74
2022/04/22 15:11:24;;;;;;;6.27;4.33;;;21.20;31.50;;;;;;5069100;28;20555;-74
2022/04/22 15:14:09;;;;;;;5.27;4.60;;;21.10;31.40;;;;;;5071617;28;20536;-74
2022/04/22 15:16:55;;;;;;;5.73;4.20;;;21.00;30.90;;;;;;5068890;28;20498;-74
2022/04/22 15:25:49;;;;;;;8.27;4.83;;;20.50;31.50;;;;;;5069805;28;21030;-72
2022/04/22 15:28:35;;;;;;;7.20;4.03;;;20.50;31.70;;;;;;5076221;28;20936;-73
2022/04/22 15:31:21;;;;;;;5.13;4.10;;;20.30;31.30;;;;;;5075576;28;20927;-73
2022/04/22 15:34:07;;;;;;;5.63;4.20;;;20.30;31.60;;;;;;5069860;28;20474;-73
2022/04/22 15:36:52;;;;;;;5.37;4.10;;;20.30;33.50;;;;;;5069135;28;20585;-72
2022/04/22 15:39:39;;;;;;;7.50;4.70;;;20.30;31.80;;;;;;5073606;28;20437;-74